sensor_id;sensor_type;location;lat;lon;timestamp;P1;durP1;ratioP1;P2;durP2;ratioP2
56581;SDS011;42463;52.214;21.238;2022-11-15T00:02:41;28.50;;;15.90;;
56581;SDS011;42463;52.214;21.238;2022-11-15T00:05:25;27.40;;;16.20;;
56581;SDS011;42463;52.214;21.238;2022-11-15T00:08:09;27.10;;;15.50;;
56581;SDS011;42463;52.214;21.238;2022-11-15T00:10:56;26.30;;;16.80;;
56581;SDS011;42463;52.214;21.238;2022-11-15T00:13:41;29.50;;;17.80;;
56581;SDS011;42463;52.214;21.238;2022-11-15T00:16:24;29.80;;;18.00;;
56581;SDS011;42463;52.214;21.238;2022-11-15T00:19:08;28.20;;;17.50;;
56581;SDS011;42463;52.214;21.238;2022-11-15T00:21:52;29.30;;;18.50;;
56581;SDS011;42463;52.214;21.238;2022-11-15T00:24:36;30.10;;;18.20;;
56581;SDS011;42463;52.214;21.238;2022-11-15T00:27:20;32.40;;;19.70;;
56581;SDS011;42463;52.214;21.238;2022-11-15T00:30:06;32.10;;;18.90;;
56581;SDS011;42463;52.214;21.238;2022-11-15T00:32:50;32.50;;;19.50;;
56581;SDS011;42463;52.214;21.238;2022-11-15T00:35:36;30.50;;;18.70;;
56581;SDS011;42463;52.214;21.238;2022-11-15T00:38:20;36.80;;;20.50;;
56581;SDS011;42463;52.214;21.238;2022-11-15T00:41:03;33.60;;;20.30;;
56581;SDS011;42463;52.214;21.238;2022-11-15T00:43:48;33.90;;;20.20;;
56581;SDS011;42463;52.214;21.238;2022-11-15T00:46:32;33.40;;;19.80;;
56581;SDS011;42463;52.214;21.238;2022-11-15T00:49:16;35.10;;;20.50;;
56581;SDS011;42463;52.214;21.238;2022-11-15T00:51:59;36.30;;;21.20;;
56581;SDS011;42463;52.214;21.238;2022-11-15T00:54:43;48.60;;;24.30;;
56581;SDS011;42463;52.214;21.238;2022-11-15T00:57:26;39.60;;;22.10;;
56581;SDS011;42463;52.214;21.238;2022-11-15T01:00:11;38.00;;;21.80;;
56581;SDS011;42463;52.214;21.238;2022-11-15T01:02:55;39.50;;;21.70;;
56581;SDS011;42463;52.214;21.238;2022-11-15T01:05:39;38.70;;;21.40;;
56581;SDS011;42463;52.214;21.238;2022-11-15T01:08:22;37.00;;;20.20;;
56581;SDS011;42463;52.214;21.238;2022-11-15T01:11:06;37.20;;;21.70;;
56581;SDS011;42463;52.214;21.238;2022-11-15T01:13:52;41.70;;;23.30;;
56581;SDS011;42463;52.214;21.238;2022-11-15T01:16:36;35.00;;;20.30;;
56581;SDS011;42463;52.214;21.238;2022-11-15T01:19:19;36.00;;;20.60;;
56581;SDS011;42463;52.214;21.238;2022-11-15T01:22:04;34.90;;;19.40;;
56581;SDS011;42463;52.214;21.238;2022-11-15T01:24:47;34.10;;;20.30;;
56581;SDS011;42463;52.214;21.238;2022-11-15T01:27:32;35.00;;;20.30;;
56581;SDS011;42463;52.214;21.238;2022-11-15T01:30:15;32.50;;;18.10;;
56581;SDS011;42463;52.214;21.238;2022-11-15T01:32:59;33.50;;;18.80;;
56581;SDS011;42463;52.214;21.238;2022-11-15T01:35:43;32.60;;;18.20;;
56581;SDS011;42463;52.214;21.238;2022-11-15T01:38:26;31.30;;;17.40;;
56581;SDS011;42463;52.214;21.238;2022-11-15T01:41:15;35.80;;;18.90;;
56581;SDS011;42463;52.214;21.238;2022-11-15T01:47:21;37.90;;;19.40;;
56581;SDS011;42463;52.214;21.238;2022-11-15T01:50:10;35.80;;;19.00;;
56581;SDS011;42463;52.214;21.238;2022-11-15T01:52:57;34.10;;;18.40;;
56581;SDS011;42463;52.214;21.238;2022-11-15T01:55:40;38.20;;;19.00;;
56581;SDS011;42463;52.214;21.238;2022-11-15T01:58:24;39.10;;;19.10;;
56581;SDS011;42463;52.214;21.238;2022-11-15T02:04:28;36.90;;;18.30;;
56581;SDS011;42463;52.214;21.238;2022-11-15T02:07:14;35.00;;;18.30;;
56581;SDS011;42463;52.214;21.238;2022-11-15T02:10:00;34.50;;;18.30;;
56581;SDS011;42463;52.214;21.238;2022-11-15T02:12:48;33.50;;;17.10;;
56581;SDS011;42463;52.214;21.238;2022-11-15T02:15:35;33.50;;;17.70;;
56581;SDS011;42463;52.214;21.238;2022-11-15T02:18:26;36.20;;;18.50;;
56581;SDS011;42463;52.214;21.238;2022-11-15T02:21:17;41.30;;;21.00;;
56581;SDS011;42463;52.214;21.238;2022-11-15T02:27:29;40.10;;;21.00;;
56581;SDS011;42463;52.214;21.238;2022-11-15T02:30:37;39.80;;;20.20;;
56581;SDS011;42463;52.214;21.238;2022-11-15T02:33:28;44.90;;;20.90;;
56581;SDS011;42463;52.214;21.238;2022-11-15T02:36:24;41.70;;;21.00;;
56581;SDS011;42463;52.214;21.238;2022-11-15T02:39:17;46.10;;;22.40;;
56581;SDS011;42463;52.214;21.238;2022-11-15T02:42:09;40.10;;;20.40;;
56581;SDS011;42463;52.214;21.238;2022-11-15T02:45:11;39.20;;;21.40;;
56581;SDS011;42463;52.214;21.238;2022-11-15T02:48:00;45.70;;;22.80;;
56581;SDS011;42463;52.214;21.238;2022-11-15T02:50:45;42.30;;;21.60;;
56581;SDS011;42463;52.214;21.238;2022-11-15T02:53:30;43.20;;;22.20;;
56581;SDS011;42463;52.214;21.238;2022-11-15T02:56:14;41.60;;;22.00;;
56581;SDS011;42463;52.214;21.238;2022-11-15T02:59:00;43.00;;;22.20;;
56581;SDS011;42463;52.214;21.238;2022-11-15T03:02:04;42.70;;;22.60;;
56581;SDS011;42463;52.214;21.238;2022-11-15T03:04:59;43.20;;;23.20;;
56581;SDS011;42463;52.214;21.238;2022-11-15T03:07:53;43.80;;;24.60;;
56581;SDS011;42463;52.214;21.238;2022-11-15T03:10:45;46.80;;;24.40;;
56581;SDS011;42463;52.214;21.238;2022-11-15T03:13:37;44.10;;;23.20;;
56581;SDS011;42463;52.214;21.238;2022-11-15T03:16:27;44.60;;;23.20;;
56581;SDS011;42463;52.214;21.238;2022-11-15T03:19:20;48.00;;;24.10;;
56581;SDS011;42463;52.214;21.238;2022-11-15T03:22:11;45.30;;;23.30;;
56581;SDS011;42463;52.214;21.238;2022-11-15T03:24:59;44.10;;;22.50;;
56581;SDS011;42463;52.214;21.238;2022-11-15T03:27:48;41.50;;;21.00;;
56581;SDS011;42463;52.214;21.238;2022-11-15T03:30:36;40.20;;;21.00;;
56581;SDS011;42463;52.214;21.238;2022-11-15T03:33:21;41.30;;;21.50;;
56581;SDS011;42463;52.214;21.238;2022-11-15T03:36:06;41.60;;;21.80;;
56581;SDS011;42463;52.214;21.238;2022-11-15T03:41:37;41.40;;;20.60;;
56581;SDS011;42463;52.214;21.238;2022-11-15T03:44:29;40.60;;;20.70;;
56581;SDS011;42463;52.214;21.238;2022-11-15T03:47:19;41.00;;;19.70;;
56581;SDS011;42463;52.214;21.238;2022-11-15T03:50:08;40.80;;;20.60;;
56581;SDS011;42463;52.214;21.238;2022-11-15T03:52:55;44.70;;;21.60;;
56581;SDS011;42463;52.214;21.238;2022-11-15T03:55:39;39.40;;;20.50;;
56581;SDS011;42463;52.214;21.238;2022-11-15T03:58:22;39.60;;;19.70;;
56581;SDS011;42463;52.214;21.238;2022-11-15T04:01:06;40.10;;;20.30;;
56581;SDS011;42463;52.214;21.238;2022-11-15T04:03:49;39.60;;;20.00;;
56581;SDS011;42463;52.214;21.238;2022-11-15T04:06:32;42.80;;;20.90;;
56581;SDS011;42463;52.214;21.238;2022-11-15T04:09:16;37.80;;;19.10;;
56581;SDS011;42463;52.214;21.238;2022-11-15T04:11:59;41.60;;;19.50;;
56581;SDS011;42463;52.214;21.238;2022-11-15T04:14:44;39.20;;;19.70;;
56581;SDS011;42463;52.214;21.238;2022-11-15T04:17:48;38.80;;;20.10;;
56581;SDS011;42463;52.214;21.238;2022-11-15T04:20:32;40.70;;;20.30;;
56581;SDS011;42463;52.214;21.238;2022-11-15T04:23:34;40.90;;;20.50;;
56581;SDS011;42463;52.214;21.238;2022-11-15T04:26:35;41.10;;;19.90;;
56581;SDS011;42463;52.214;21.238;2022-11-15T04:29:19;39.20;;;20.60;;
56581;SDS011;42463;52.214;21.238;2022-11-15T04:32:17;39.50;;;19.20;;
56581;SDS011;42463;52.214;21.238;2022-11-15T04:35:01;39.70;;;19.20;;
56581;SDS011;42463;52.214;21.238;2022-11-15T04:37:45;43.80;;;20.10;;
56581;SDS011;42463;52.214;21.238;2022-11-15T04:40:28;36.40;;;18.60;;
56581;SDS011;42463;52.214;21.238;2022-11-15T04:43:12;43.20;;;19.20;;
56581;SDS011;42463;52.214;21.238;2022-11-15T04:45:56;40.40;;;18.00;;
56581;SDS011;42463;52.214;21.238;2022-11-15T04:48:40;37.60;;;17.40;;
56581;SDS011;42463;52.214;21.238;2022-11-15T04:51:24;33.70;;;16.10;;
56581;SDS011;42463;52.214;21.238;2022-11-15T04:54:08;39.50;;;17.90;;
56581;SDS011;42463;52.214;21.238;2022-11-15T04:56:51;32.00;;;15.50;;
56581;SDS011;42463;52.214;21.238;2022-11-15T04:59:35;35.10;;;16.80;;
56581;SDS011;42463;52.214;21.238;2022-11-15T05:02:18;38.20;;;17.10;;
56581;SDS011;42463;52.214;21.238;2022-11-15T05:05:01;34.70;;;16.90;;
56581;SDS011;42463;52.214;21.238;2022-11-15T05:07:45;42.30;;;19.00;;
56581;SDS011;42463;52.214;21.238;2022-11-15T05:10:29;36.00;;;17.20;;
56581;SDS011;42463;52.214;21.238;2022-11-15T05:13:12;40.30;;;17.80;;
56581;SDS011;42463;52.214;21.238;2022-11-15T05:15:56;44.80;;;20.10;;
56581;SDS011;42463;52.214;21.238;2022-11-15T05:18:39;38.70;;;17.50;;
56581;SDS011;42463;52.214;21.238;2022-11-15T05:21:22;39.60;;;18.30;;
56581;SDS011;42463;52.214;21.238;2022-11-15T05:24:06;40.00;;;17.20;;
56581;SDS011;42463;52.214;21.238;2022-11-15T05:26:53;40.50;;;19.60;;
56581;SDS011;42463;52.214;21.238;2022-11-15T05:29:38;44.20;;;20.50;;
56581;SDS011;42463;52.214;21.238;2022-11-15T05:32:21;44.30;;;19.20;;
56581;SDS011;42463;52.214;21.238;2022-11-15T05:35:06;39.10;;;18.50;;
56581;SDS011;42463;52.214;21.238;2022-11-15T05:37:53;44.80;;;18.70;;
56581;SDS011;42463;52.214;21.238;2022-11-15T05:43:20;39.50;;;19.20;;
56581;SDS011;42463;52.214;21.238;2022-11-15T05:46:04;42.50;;;20.40;;
56581;SDS011;42463;52.214;21.238;2022-11-15T05:48:48;46.60;;;21.80;;
56581;SDS011;42463;52.214;21.238;2022-11-15T05:51:35;45.20;;;21.40;;
56581;SDS011;42463;52.214;21.238;2022-11-15T05:54:19;43.20;;;20.70;;
56581;SDS011;42463;52.214;21.238;2022-11-15T05:57:04;48.30;;;22.10;;
56581;SDS011;42463;52.214;21.238;2022-11-15T05:59:48;41.80;;;21.10;;
56581;SDS011;42463;52.214;21.238;2022-11-15T06:02:32;45.10;;;22.30;;
56581;SDS011;42463;52.214;21.238;2022-11-15T06:05:15;47.60;;;22.10;;
56581;SDS011;42463;52.214;21.238;2022-11-15T06:07:59;39.80;;;19.90;;
56581;SDS011;42463;52.214;21.238;2022-11-15T06:10:43;47.40;;;20.80;;
56581;SDS011;42463;52.214;21.238;2022-11-15T06:13:26;42.60;;;19.60;;
56581;SDS011;42463;52.214;21.238;2022-11-15T06:16:10;47.10;;;20.00;;
56581;SDS011;42463;52.214;21.238;2022-11-15T06:18:54;45.00;;;21.10;;
56581;SDS011;42463;52.214;21.238;2022-11-15T06:21:37;43.30;;;19.30;;
56581;SDS011;42463;52.214;21.238;2022-11-15T06:24:22;48.70;;;20.80;;
56581;SDS011;42463;52.214;21.238;2022-11-15T06:27:07;49.40;;;21.00;;
56581;SDS011;42463;52.214;21.238;2022-11-15T06:29:50;48.30;;;20.70;;
56581;SDS011;42463;52.214;21.238;2022-11-15T06:32:34;51.30;;;21.80;;
56581;SDS011;42463;52.214;21.238;2022-11-15T06:35:17;46.60;;;19.90;;
56581;SDS011;42463;52.214;21.238;2022-11-15T06:38:03;49.10;;;21.30;;
56581;SDS011;42463;52.214;21.238;2022-11-15T06:40:48;48.60;;;21.40;;
56581;SDS011;42463;52.214;21.238;2022-11-15T06:43:32;54.80;;;22.40;;
56581;SDS011;42463;52.214;21.238;2022-11-15T06:46:16;50.90;;;22.10;;
56581;SDS011;42463;52.214;21.238;2022-11-15T06:48:59;47.70;;;20.40;;
56581;SDS011;42463;52.214;21.238;2022-11-15T06:51:43;52.30;;;23.60;;
56581;SDS011;42463;52.214;21.238;2022-11-15T06:54:27;49.30;;;22.50;;
56581;SDS011;42463;52.214;21.238;2022-11-15T06:57:11;53.40;;;23.50;;
56581;SDS011;42463;52.214;21.238;2022-11-15T06:59:55;48.50;;;20.90;;
56581;SDS011;42463;52.214;21.238;2022-11-15T07:02:40;48.80;;;21.20;;
56581;SDS011;42463;52.214;21.238;2022-11-15T07:05:24;47.00;;;21.10;;
56581;SDS011;42463;52.214;21.238;2022-11-15T07:08:07;52.90;;;21.70;;
56581;SDS011;42463;52.214;21.238;2022-11-15T07:10:51;46.60;;;20.70;;
56581;SDS011;42463;52.214;21.238;2022-11-15T07:13:35;52.40;;;22.00;;
56581;SDS011;42463;52.214;21.238;2022-11-15T07:16:18;52.00;;;21.00;;
56581;SDS011;42463;52.214;21.238;2022-11-15T07:19:02;55.70;;;22.80;;
56581;SDS011;42463;52.214;21.238;2022-11-15T07:21:47;53.00;;;21.40;;
56581;SDS011;42463;52.214;21.238;2022-11-15T07:24:31;50.60;;;20.90;;
56581;SDS011;42463;52.214;21.238;2022-11-15T07:27:15;49.00;;;20.40;;
56581;SDS011;42463;52.214;21.238;2022-11-15T07:29:58;50.60;;;20.60;;
56581;SDS011;42463;52.214;21.238;2022-11-15T07:32:42;47.60;;;19.00;;
56581;SDS011;42463;52.214;21.238;2022-11-15T07:38:09;43.60;;;17.60;;
56581;SDS011;42463;52.214;21.238;2022-11-15T07:40:56;45.80;;;18.20;;
56581;SDS011;42463;52.214;21.238;2022-11-15T07:43:42;43.40;;;17.40;;
56581;SDS011;42463;52.214;21.238;2022-11-15T07:46:26;40.40;;;16.80;;
56581;SDS011;42463;52.214;21.238;2022-11-15T07:49:10;42.60;;;16.40;;
56581;SDS011;42463;52.214;21.238;2022-11-15T07:51:56;41.60;;;17.40;;
56581;SDS011;42463;52.214;21.238;2022-11-15T07:54:39;35.80;;;14.10;;
56581;SDS011;42463;52.214;21.238;2022-11-15T07:57:23;40.30;;;17.30;;
56581;SDS011;42463;52.214;21.238;2022-11-15T08:00:08;40.60;;;16.90;;
56581;SDS011;42463;52.214;21.238;2022-11-15T08:03:01;39.90;;;16.10;;
56581;SDS011;42463;52.214;21.238;2022-11-15T08:05:49;40.70;;;17.10;;
56581;SDS011;42463;52.214;21.238;2022-11-15T08:08:34;37.10;;;16.90;;
56581;SDS011;42463;52.214;21.238;2022-11-15T08:11:17;38.50;;;15.70;;
56581;SDS011;42463;52.214;21.238;2022-11-15T08:14:01;39.20;;;16.50;;
56581;SDS011;42463;52.214;21.238;2022-11-15T08:16:44;39.30;;;16.50;;
56581;SDS011;42463;52.214;21.238;2022-11-15T08:19:28;41.30;;;16.70;;
56581;SDS011;42463;52.214;21.238;2022-11-15T08:22:11;42.80;;;17.90;;
56581;SDS011;42463;52.214;21.238;2022-11-15T08:24:56;38.50;;;15.70;;
56581;SDS011;42463;52.214;21.238;2022-11-15T08:27:40;47.30;;;18.10;;
56581;SDS011;42463;52.214;21.238;2022-11-15T08:33:09;44.10;;;19.40;;
56581;SDS011;42463;52.214;21.238;2022-11-15T08:35:55;41.60;;;18.20;;
56581;SDS011;42463;52.214;21.238;2022-11-15T08:38:39;41.40;;;19.00;;
56581;SDS011;42463;52.214;21.238;2022-11-15T08:41:23;45.10;;;19.40;;
56581;SDS011;42463;52.214;21.238;2022-11-15T08:44:10;43.50;;;19.00;;
56581;SDS011;42463;52.214;21.238;2022-11-15T08:46:54;46.20;;;19.30;;
56581;SDS011;42463;52.214;21.238;2022-11-15T08:49:38;45.90;;;19.80;;
56581;SDS011;42463;52.214;21.238;2022-11-15T08:52:21;45.70;;;18.90;;
56581;SDS011;42463;52.214;21.238;2022-11-15T08:55:07;43.50;;;19.10;;
56581;SDS011;42463;52.214;21.238;2022-11-15T08:57:51;47.80;;;19.70;;
56581;SDS011;42463;52.214;21.238;2022-11-15T09:00:34;37.50;;;17.90;;
56581;SDS011;42463;52.214;21.238;2022-11-15T09:03:18;42.20;;;19.40;;
56581;SDS011;42463;52.214;21.238;2022-11-15T09:06:02;41.30;;;19.30;;
56581;SDS011;42463;52.214;21.238;2022-11-15T09:08:46;40.10;;;17.70;;
56581;SDS011;42463;52.214;21.238;2022-11-15T09:11:31;40.60;;;18.10;;
56581;SDS011;42463;52.214;21.238;2022-11-15T09:14:14;38.90;;;17.80;;
56581;SDS011;42463;52.214;21.238;2022-11-15T09:16:58;37.10;;;18.40;;
56581;SDS011;42463;52.214;21.238;2022-11-15T09:19:42;41.60;;;19.20;;
56581;SDS011;42463;52.214;21.238;2022-11-15T09:22:26;45.60;;;20.10;;
56581;SDS011;42463;52.214;21.238;2022-11-15T09:25:10;39.90;;;19.00;;
56581;SDS011;42463;52.214;21.238;2022-11-15T09:27:54;42.60;;;20.10;;
56581;SDS011;42463;52.214;21.238;2022-11-15T09:30:37;42.40;;;19.20;;
56581;SDS011;42463;52.214;21.238;2022-11-15T09:33:21;68.20;;;20.60;;
56581;SDS011;42463;52.214;21.238;2022-11-15T09:36:06;47.30;;;18.60;;
56581;SDS011;42463;52.214;21.238;2022-11-15T09:38:52;35.70;;;16.60;;
56581;SDS011;42463;52.214;21.238;2022-11-15T09:41:41;34.50;;;17.10;;
56581;SDS011;42463;52.214;21.238;2022-11-15T09:44:51;38.00;;;16.60;;
56581;SDS011;42463;52.214;21.238;2022-11-15T09:47:49;33.70;;;16.40;;
56581;SDS011;42463;52.214;21.238;2022-11-15T09:50:43;39.40;;;17.70;;
56581;SDS011;42463;52.214;21.238;2022-11-15T09:53:14;38.70;;;17.00;;
56581;SDS011;42463;52.214;21.238;2022-11-15T09:55:48;35.10;;;17.40;;
56581;SDS011;42463;52.214;21.238;2022-11-15T09:58:21;35.80;;;17.00;;
56581;SDS011;42463;52.214;21.238;2022-11-15T10:00:52;36.00;;;17.50;;
56581;SDS011;42463;52.214;21.238;2022-11-15T10:03:20;39.80;;;17.50;;
56581;SDS011;42463;52.214;21.238;2022-11-15T10:05:52;37.60;;;18.40;;
56581;SDS011;42463;52.214;21.238;2022-11-15T10:08:28;35.50;;;16.30;;
56581;SDS011;42463;52.214;21.238;2022-11-15T10:11:03;35.80;;;16.70;;
56581;SDS011;42463;52.214;21.238;2022-11-15T10:13:31;36.90;;;16.70;;
56581;SDS011;42463;52.214;21.238;2022-11-15T10:16:00;36.10;;;16.60;;
56581;SDS011;42463;52.214;21.238;2022-11-15T10:18:33;36.20;;;16.50;;
56581;SDS011;42463;52.214;21.238;2022-11-15T10:21:10;33.90;;;15.50;;
56581;SDS011;42463;52.214;21.238;2022-11-15T10:23:40;36.70;;;17.20;;
56581;SDS011;42463;52.214;21.238;2022-11-15T10:26:07;29.90;;;14.50;;
56581;SDS011;42463;52.214;21.238;2022-11-15T10:28:36;36.60;;;17.10;;
56581;SDS011;42463;52.214;21.238;2022-11-15T10:31:10;33.40;;;16.40;;
56581;SDS011;42463;52.214;21.238;2022-11-15T10:33:46;32.40;;;15.80;;
56581;SDS011;42463;52.214;21.238;2022-11-15T10:36:16;36.60;;;16.30;;
56581;SDS011;42463;52.214;21.238;2022-11-15T10:38:52;30.20;;;14.90;;
56581;SDS011;42463;52.214;21.238;2022-11-15T10:41:19;32.90;;;16.60;;
56581;SDS011;42463;52.214;21.238;2022-11-15T10:43:46;32.90;;;17.30;;
56581;SDS011;42463;52.214;21.238;2022-11-15T10:46:31;28.60;;;14.50;;
56581;SDS011;42463;52.214;21.238;2022-11-15T10:49:00;30.80;;;15.40;;
56581;SDS011;42463;52.214;21.238;2022-11-15T10:51:39;32.80;;;15.50;;
56581;SDS011;42463;52.214;21.238;2022-11-15T10:54:07;30.10;;;15.20;;
56581;SDS011;42463;52.214;21.238;2022-11-15T10:56:35;28.80;;;15.00;;
56581;SDS011;42463;52.214;21.238;2022-11-15T10:58:59;29.60;;;14.80;;
56581;SDS011;42463;52.214;21.238;2022-11-15T11:01:24;29.30;;;14.70;;
56581;SDS011;42463;52.214;21.238;2022-11-15T11:04:02;32.40;;;15.10;;
56581;SDS011;42463;52.214;21.238;2022-11-15T11:06:28;33.30;;;16.50;;
56581;SDS011;42463;52.214;21.238;2022-11-15T11:08:56;31.60;;;15.50;;
56581;SDS011;42463;52.214;21.238;2022-11-15T11:11:22;37.10;;;16.80;;
56581;SDS011;42463;52.214;21.238;2022-11-15T11:13:47;31.10;;;15.60;;
56581;SDS011;42463;52.214;21.238;2022-11-15T11:19:08;33.10;;;15.90;;
56581;SDS011;42463;52.214;21.238;2022-11-15T11:21:43;30.10;;;14.80;;
56581;SDS011;42463;52.214;21.238;2022-11-15T11:24:15;33.40;;;17.00;;
56581;SDS011;42463;52.214;21.238;2022-11-15T11:26:54;33.50;;;17.80;;
56581;SDS011;42463;52.214;21.238;2022-11-15T11:29:33;34.00;;;17.40;;
56581;SDS011;42463;52.214;21.238;2022-11-15T11:32:18;35.80;;;16.10;;
56581;SDS011;42463;52.214;21.238;2022-11-15T11:34:55;32.50;;;15.90;;
56581;SDS011;42463;52.214;21.238;2022-11-15T11:37:29;33.30;;;16.10;;
56581;SDS011;42463;52.214;21.238;2022-11-15T11:40:01;33.40;;;16.20;;
56581;SDS011;42463;52.214;21.238;2022-11-15T11:42:38;29.10;;;15.50;;
56581;SDS011;42463;52.214;21.238;2022-11-15T11:45:14;32.80;;;16.50;;
56581;SDS011;42463;52.214;21.238;2022-11-15T11:47:46;34.50;;;17.80;;
56581;SDS011;42463;52.214;21.238;2022-11-15T11:50:15;34.20;;;17.20;;
56581;SDS011;42463;52.214;21.238;2022-11-15T11:52:43;36.30;;;17.20;;
56581;SDS011;42463;52.214;21.238;2022-11-15T11:55:18;37.60;;;18.80;;
56581;SDS011;42463;52.214;21.238;2022-11-15T11:57:48;38.60;;;18.60;;
56581;SDS011;42463;52.214;21.238;2022-11-15T12:00:20;38.60;;;20.40;;
56581;SDS011;42463;52.214;21.238;2022-11-15T12:02:49;36.90;;;18.10;;
56581;SDS011;42463;52.214;21.238;2022-11-15T12:05:25;38.80;;;17.90;;
56581;SDS011;42463;52.214;21.238;2022-11-15T12:07:54;34.50;;;17.40;;
56581;SDS011;42463;52.214;21.238;2022-11-15T12:10:25;42.20;;;18.50;;
56581;SDS011;42463;52.214;21.238;2022-11-15T12:12:58;38.00;;;18.30;;
56581;SDS011;42463;52.214;21.238;2022-11-15T12:15:27;37.00;;;18.50;;
56581;SDS011;42463;52.214;21.238;2022-11-15T12:17:56;37.30;;;17.80;;
56581;SDS011;42463;52.214;21.238;2022-11-15T12:20:23;39.80;;;19.10;;
56581;SDS011;42463;52.214;21.238;2022-11-15T12:22:52;40.00;;;18.70;;
56581;SDS011;42463;52.214;21.238;2022-11-15T12:25:20;39.90;;;19.30;;
56581;SDS011;42463;52.214;21.238;2022-11-15T12:27:50;39.50;;;20.10;;
56581;SDS011;42463;52.214;21.238;2022-11-15T12:30:19;39.60;;;19.60;;
56581;SDS011;42463;52.214;21.238;2022-11-15T12:32:51;41.20;;;19.20;;
56581;SDS011;42463;52.214;21.238;2022-11-15T12:35:26;38.60;;;18.60;;
56581;SDS011;42463;52.214;21.238;2022-11-15T12:37:55;40.50;;;20.20;;
56581;SDS011;42463;52.214;21.238;2022-11-15T12:40:22;44.70;;;19.40;;
56581;SDS011;42463;52.214;21.238;2022-11-15T12:43:04;41.20;;;19.80;;
56581;SDS011;42463;52.214;21.238;2022-11-15T12:45:44;39.40;;;19.90;;
56581;SDS011;42463;52.214;21.238;2022-11-15T12:51:11;38.90;;;20.20;;
56581;SDS011;42463;52.214;21.238;2022-11-15T12:53:35;38.70;;;19.30;;
56581;SDS011;42463;52.214;21.238;2022-11-15T12:56:17;39.30;;;19.50;;
56581;SDS011;42463;52.214;21.238;2022-11-15T12:58:47;41.90;;;21.20;;
56581;SDS011;42463;52.214;21.238;2022-11-15T13:04:11;44.00;;;20.70;;
56581;SDS011;42463;52.214;21.238;2022-11-15T13:06:46;42.60;;;21.90;;
56581;SDS011;42463;52.214;21.238;2022-11-15T13:15:37;40.60;;;21.50;;
56581;SDS011;42463;52.214;21.238;2022-11-15T13:18:25;41.10;;;21.10;;
56581;SDS011;42463;52.214;21.238;2022-11-15T13:21:00;40.00;;;21.00;;
56581;SDS011;42463;52.214;21.238;2022-11-15T13:23:53;52.40;;;27.00;;
56581;SDS011;42463;52.214;21.238;2022-11-15T13:26:17;46.90;;;23.80;;
56581;SDS011;42463;52.214;21.238;2022-11-15T13:28:44;47.10;;;23.60;;
56581;SDS011;42463;52.214;21.238;2022-11-15T13:31:17;47.10;;;23.60;;
56581;SDS011;42463;52.214;21.238;2022-11-15T13:33:46;44.00;;;23.40;;
56581;SDS011;42463;52.214;21.238;2022-11-15T13:36:13;44.50;;;21.80;;
56581;SDS011;42463;52.214;21.238;2022-11-15T13:38:43;41.60;;;20.20;;
56581;SDS011;42463;52.214;21.238;2022-11-15T13:41:19;40.80;;;20.30;;
56581;SDS011;42463;52.214;21.238;2022-11-15T13:43:45;41.70;;;18.60;;
56581;SDS011;42463;52.214;21.238;2022-11-15T13:46:14;42.70;;;20.20;;
56581;SDS011;42463;52.214;21.238;2022-11-15T13:48:41;41.40;;;20.10;;
56581;SDS011;42463;52.214;21.238;2022-11-15T13:51:08;44.10;;;21.80;;
56581;SDS011;42463;52.214;21.238;2022-11-15T13:53:40;43.40;;;21.80;;
56581;SDS011;42463;52.214;21.238;2022-11-15T13:56:09;46.10;;;21.80;;
56581;SDS011;42463;52.214;21.238;2022-11-15T13:58:33;40.20;;;19.60;;
56581;SDS011;42463;52.214;21.238;2022-11-15T14:01:03;46.40;;;21.30;;
56581;SDS011;42463;52.214;21.238;2022-11-15T14:03:28;41.60;;;19.70;;
56581;SDS011;42463;52.214;21.238;2022-11-15T14:06:05;41.50;;;21.40;;
56581;SDS011;42463;52.214;21.238;2022-11-15T14:08:33;43.10;;;20.80;;
56581;SDS011;42463;52.214;21.238;2022-11-15T14:11:13;43.50;;;20.40;;
56581;SDS011;42463;52.214;21.238;2022-11-15T14:13:40;39.80;;;19.60;;
56581;SDS011;42463;52.214;21.238;2022-11-15T14:16:22;48.30;;;22.60;;
56581;SDS011;42463;52.214;21.238;2022-11-15T14:18:59;46.50;;;21.90;;
56581;SDS011;42463;52.214;21.238;2022-11-15T14:21:24;45.10;;;20.70;;
56581;SDS011;42463;52.214;21.238;2022-11-15T14:23:49;47.90;;;22.50;;
56581;SDS011;42463;52.214;21.238;2022-11-15T14:26:29;49.50;;;22.90;;
56581;SDS011;42463;52.214;21.238;2022-11-15T14:28:56;45.80;;;22.30;;
56581;SDS011;42463;52.214;21.238;2022-11-15T14:34:04;54.60;;;23.10;;
56581;SDS011;42463;52.214;21.238;2022-11-15T14:36:31;47.70;;;22.40;;
56581;SDS011;42463;52.214;21.238;2022-11-15T14:38:56;48.90;;;23.20;;
56581;SDS011;42463;52.214;21.238;2022-11-15T14:41:22;47.10;;;22.50;;
56581;SDS011;42463;52.214;21.238;2022-11-15T14:43:48;47.50;;;22.60;;
56581;SDS011;42463;52.214;21.238;2022-11-15T14:46:12;51.10;;;23.90;;
56581;SDS011;42463;52.214;21.238;2022-11-15T14:48:37;50.00;;;23.80;;
56581;SDS011;42463;52.214;21.238;2022-11-15T14:51:01;52.20;;;23.10;;
56581;SDS011;42463;52.214;21.238;2022-11-15T14:53:26;49.90;;;22.40;;
56581;SDS011;42463;52.214;21.238;2022-11-15T14:55:51;47.80;;;23.60;;
56581;SDS011;42463;52.214;21.238;2022-11-15T14:58:15;48.70;;;22.30;;
56581;SDS011;42463;52.214;21.238;2022-11-15T15:00:40;50.40;;;23.20;;
56581;SDS011;42463;52.214;21.238;2022-11-15T15:03:05;52.20;;;22.80;;
56581;SDS011;42463;52.214;21.238;2022-11-15T15:05:31;47.80;;;21.60;;
56581;SDS011;42463;52.214;21.238;2022-11-15T15:07:57;49.90;;;22.90;;
56581;SDS011;42463;52.214;21.238;2022-11-15T15:10:22;48.60;;;21.90;;
56581;SDS011;42463;52.214;21.238;2022-11-15T15:12:47;45.40;;;21.70;;
56581;SDS011;42463;52.214;21.238;2022-11-15T15:15:13;52.30;;;23.30;;
56581;SDS011;42463;52.214;21.238;2022-11-15T15:17:40;44.50;;;21.30;;
56581;SDS011;42463;52.214;21.238;2022-11-15T15:20:06;46.40;;;21.90;;
56581;SDS011;42463;52.214;21.238;2022-11-15T15:22:31;54.10;;;22.20;;
56581;SDS011;42463;52.214;21.238;2022-11-15T15:24:56;52.30;;;24.20;;
56581;SDS011;42463;52.214;21.238;2022-11-15T15:27:20;49.40;;;23.50;;
56581;SDS011;42463;52.214;21.238;2022-11-15T15:29:44;53.20;;;22.30;;
56581;SDS011;42463;52.214;21.238;2022-11-15T15:32:09;45.30;;;22.10;;
56581;SDS011;42463;52.214;21.238;2022-11-15T15:34:35;47.50;;;23.40;;
56581;SDS011;42463;52.214;21.238;2022-11-15T15:37:11;55.80;;;24.00;;
56581;SDS011;42463;52.214;21.238;2022-11-15T15:39:45;51.00;;;23.20;;
56581;SDS011;42463;52.214;21.238;2022-11-15T15:42:10;52.90;;;24.70;;
56581;SDS011;42463;52.214;21.238;2022-11-15T15:44:34;55.60;;;24.00;;
56581;SDS011;42463;52.214;21.238;2022-11-15T15:46:59;52.30;;;23.60;;
56581;SDS011;42463;52.214;21.238;2022-11-15T15:49:24;51.50;;;23.20;;
56581;SDS011;42463;52.214;21.238;2022-11-15T15:51:49;59.10;;;25.00;;
56581;SDS011;42463;52.214;21.238;2022-11-15T15:54:14;54.40;;;23.10;;
56581;SDS011;42463;52.214;21.238;2022-11-15T15:56:38;56.10;;;25.40;;
56581;SDS011;42463;52.214;21.238;2022-11-15T15:59:03;55.40;;;24.90;;